createdAt,value
2018-06-17T00:00:47.657Z,35.84
2018-06-17T00:01:47.642Z,35.65
2018-06-17T00:02:47.628Z,36.04
2018-06-17T00:03:47.886Z,36.51
2018-06-17T00:04:47.870Z,36.71
2018-06-17T00:05:47.855Z,37.18
2018-06-17T00:06:47.844Z,36.61
2018-06-17T00:07:47.841Z,36.99
2018-06-17T00:08:47.562Z,36.8
2018-06-17T00:09:47.551Z,36.51
2018-06-17T00:10:47.797Z,36.99
2018-06-17T00:11:47.804Z,36.71
2018-06-17T00:12:47.514Z,36.8
2018-06-17T00:13:47.499Z,36.61
2018-06-17T00:14:47.489Z,36.8
2018-06-17T00:15:47.485Z,36.71
2018-06-17T00:16:47.726Z,36.32
2018-06-17T00:17:47.450Z,36.22
2018-06-17T00:18:47.709Z,36.42
2018-06-17T00:19:47.693Z,36.13
2018-06-17T00:20:47.419Z,36.04
2018-06-17T00:21:47.414Z,36.42
2018-06-17T00:22:47.399Z,36.04
2018-06-17T00:23:47.643Z,35.55
2018-06-17T00:24:47.633Z,35.65
2018-06-17T00:25:47.356Z,34.98
2018-06-17T00:26:47.348Z,34.58
2018-06-17T00:27:47.334Z,34.2
2018-06-17T00:28:47.581Z,34.1
2018-06-17T00:29:47.584Z,34.29
2018-06-17T00:30:47.562Z,34.67
2018-06-17T00:31:47.550Z,34.29
2018-06-17T00:32:47.539Z,34.29
2018-06-17T00:33:47.525Z,34.2
2018-06-17T00:34:47.252Z,34
2018-06-17T00:35:47.239Z,34.2
2018-06-17T00:36:47.227Z,33.72
2018-06-17T00:37:47.482Z,33.14
2018-06-17T00:38:47.466Z,33.62
2018-06-17T00:39:47.189Z,33.43
2018-06-17T00:40:47.180Z,33.43
2018-06-17T00:41:47.431Z,32.47
2018-06-17T00:42:47.426Z,32.67
2018-06-17T00:43:47.410Z,32.57
2018-06-17T00:44:47.394Z,32.67
2018-06-17T00:45:47.126Z,32.67
2018-06-17T00:46:47.368Z,32.57
2018-06-17T00:47:47.356Z,32.67
2018-06-17T00:48:47.352Z,32.67
2018-06-17T00:49:47.073Z,32.86
2018-06-17T00:50:47.325Z,33.24
2018-06-17T00:51:47.309Z,34.29
2018-06-17T00:52:47.036Z,34.2
2018-06-17T00:53:47.283Z,35.53
2018-06-17T00:54:47.011Z,36.57
2018-06-17T00:55:47.011Z,37.72
2018-06-17T00:56:47.250Z,38.01
2018-06-17T00:57:46.972Z,38.3
2018-06-17T00:58:47.222Z,38.39
2018-06-17T00:59:47.215Z,38.2
2018-06-17T01:00:47.199Z,38.59
2018-06-17T01:01:47.183Z,38.59
2018-06-17T01:02:47.179Z,38.68
2018-06-17T01:03:47.161Z,39.06
2018-06-17T01:04:47.144Z,39.25
2018-06-17T01:05:47.135Z,39.45
2018-06-17T01:06:46.856Z,39.45
2018-06-17T01:07:46.849Z,40.21
2018-06-17T01:08:46.832Z,40.98
2018-06-17T01:09:47.290Z,41.65
2018-06-17T01:10:47.074Z,42.9
2018-06-17T01:11:46.800Z,43.27
2018-06-17T01:12:47.045Z,44.62
2018-06-17T01:13:46.775Z,45.29
2018-06-17T01:14:46.759Z,45.76
2018-06-17T01:15:47.010Z,45.96
2018-06-17T01:16:46.731Z,46.34
2018-06-17T01:17:46.719Z,46.82
2018-06-17T01:18:46.967Z,46.25
2018-06-17T01:19:46.959Z,46.82
2018-06-17T01:20:46.946Z,46.53
2018-06-17T01:21:46.933Z,46.34
2018-06-17T01:22:46.654Z,46.53
2018-06-17T01:23:46.910Z,46.72
2018-06-17T01:24:46.630Z,46.62
2018-06-17T01:25:46.891Z,46.72
2018-06-17T01:26:46.607Z,46.34
2018-06-17T01:27:46.594Z,46.7
2018-06-17T01:28:46.579Z,46.22
2018-06-17T01:29:46.833Z,46.03
2018-06-17T01:30:46.551Z,45.84
2018-06-17T01:31:46.806Z,45.74
2018-06-17T01:32:46.535Z,45.36
2018-06-17T01:33:46.783Z,44.98
2018-06-17T01:34:46.501Z,45.36
2018-06-17T01:35:46.754Z,45.36
2018-06-17T01:36:46.738Z,45.45
2018-06-17T01:37:46.465Z,45.65
2018-06-17T01:38:46.721Z,45.65
2018-06-17T01:39:46.708Z,46.03
2018-06-17T01:40:46.687Z,46.12
2018-06-17T01:41:46.676Z,45.94
2018-06-17T01:42:46.407Z,46.31
2018-06-17T01:43:46.386Z,46.7
2018-06-17T01:44:46.373Z,46.41
2018-06-17T01:45:46.625Z,46.51
2018-06-17T01:46:46.351Z,46.8
2018-06-17T01:47:46.333Z,46.61
2018-06-17T01:48:46.584Z,46.8
2018-06-17T01:49:46.572Z,47.66
2018-06-17T01:50:46.640Z,47.75
2018-06-17T01:51:46.303Z,47.66
2018-06-17T01:52:46.535Z,47.47
2018-06-17T01:53:46.252Z,49.19
2018-06-17T01:54:46.503Z,49.48
2018-06-17T01:55:46.492Z,49.29
2018-06-17T01:56:46.478Z,49.29
2018-06-17T01:57:46.473Z,50.91
2018-06-17T01:58:46.451Z,50.91
2018-06-17T01:59:46.444Z,51.1
2018-06-17T02:00:46.425Z,51.58
2018-06-17T02:01:46.412Z,52.63
2018-06-17T02:02:46.141Z,53.4
2018-06-17T02:03:46.385Z,53.78
2018-06-17T02:04:46.372Z,55.02
2018-06-17T02:05:46.360Z,54.64
2018-06-17T02:06:46.348Z,55.31
2018-06-17T02:07:46.070Z,55.98
2018-06-17T02:08:46.056Z,55.79
2018-06-17T02:09:46.303Z,55.22
2018-06-17T02:10:46.297Z,55.88
2018-06-17T02:11:46.066Z,55.41
2018-06-17T02:12:46.267Z,55.22
2018-06-17T02:13:45.990Z,55.38
2018-06-17T02:14:46.241Z,56.34
2018-06-17T02:15:45.967Z,56.62
2018-06-17T02:16:46.219Z,56.15
2018-06-17T02:17:46.199Z,56.91
2018-06-17T02:18:46.198Z,56.43
2018-06-17T02:19:46.170Z,57.1
2018-06-17T02:20:46.158Z,57.1
2018-06-17T02:21:46.154Z,57.68
2018-06-17T02:22:45.870Z,57.01
2018-06-17T02:23:45.862Z,57.29
2018-06-17T02:24:45.846Z,57.1
2018-06-17T02:25:46.094Z,58.06
2018-06-17T02:26:45.820Z,57.87
2018-06-17T02:27:46.072Z,57.97
2018-06-17T02:28:46.052Z,58.73
2018-06-17T02:29:46.042Z,59.78
2018-06-17T02:30:46.028Z,59.3
2018-06-17T02:31:46.013Z,60.55
2018-06-17T02:32:45.737Z,59.88
2018-06-17T02:33:45.723Z,59.3
2018-06-17T02:34:45.974Z,59.69
2018-06-17T02:35:45.958Z,60.45
2018-06-17T02:36:45.689Z,60.64
2018-06-17T02:37:45.931Z,60.93
2018-06-17T02:38:45.657Z,62.84
2018-06-17T02:39:45.906Z,62.08
2018-06-17T02:40:45.891Z,61.88
2018-06-17T02:41:45.614Z,62.84
2018-06-17T02:42:45.602Z,62.74
2018-06-17T02:43:45.859Z,63.42
2018-06-17T02:44:45.837Z,63.51
2018-06-17T02:45:45.832Z,63.42
2018-06-17T02:46:45.818Z,63.32
2018-06-17T02:47:45.859Z,63.7
2018-06-17T02:48:45.787Z,63.51
2018-06-17T02:49:45.772Z,63.42
2018-06-17T02:50:45.764Z,63.51
2018-06-17T02:51:45.482Z,62.27
2018-06-17T02:52:45.731Z,61.98
2018-06-17T02:53:45.452Z,61.69
2018-06-17T02:54:45.720Z,60.93
2018-06-17T02:55:45.693Z,60.83
2018-06-17T02:56:45.683Z,61.22
2018-06-17T02:57:45.399Z,61.6
2018-06-17T02:58:45.648Z,61.22
2018-06-17T02:59:45.647Z,61.02
2018-06-17T03:00:45.358Z,60.35
2018-06-17T03:01:45.608Z,58.73
2018-06-17T03:02:45.333Z,58.47
2018-06-17T03:03:45.389Z,58.28
2018-06-17T03:04:45.573Z,57.1
2018-06-17T03:05:45.559Z,57.1
2018-06-17T03:06:45.280Z,56.46
2018-06-17T03:07:45.532Z,57.2
2018-06-17T03:08:45.519Z,57.9
2018-06-17T03:09:45.443Z,58.09
2018-06-17T03:10:45.541Z,57.8
2018-06-17T03:11:45.532Z,56.53
2018-06-17T03:12:45.196Z,55.98
2018-06-17T03:13:45.512Z,54.93
2018-06-17T03:14:45.177Z,54.93
2018-06-17T03:15:45.169Z,53.69
2018-06-17T03:16:45.417Z,53.11
2018-06-17T03:17:45.398Z,53.88
2018-06-17T03:18:45.391Z,53.88
2018-06-17T03:19:45.370Z,53.4
2018-06-17T03:20:45.360Z,52.92
2018-06-17T03:21:45.345Z,52.92
2018-06-17T03:22:45.328Z,52.92
2018-06-17T03:23:45.325Z,52.92
2018-06-17T03:24:45.393Z,52.8
2018-06-17T03:25:45.027Z,52.73
2018-06-17T03:26:45.306Z,52.25
2018-06-17T03:27:45.261Z,51.65
2018-06-17T03:28:45.251Z,51.68
2018-06-17T03:29:45.236Z,51.48
2018-06-17T03:30:44.968Z,51.48
2018-06-17T03:31:45.218Z,51.1
2018-06-17T03:32:45.194Z,51.77
2018-06-17T03:33:45.185Z,52.25
2018-06-17T03:34:45.173Z,52.44
2018-06-17T03:35:45.165Z,53.88
2018-06-17T03:36:45.144Z,54.26
2018-06-17T03:37:45.128Z,53.3
2018-06-17T03:38:44.878Z,54.74
2018-06-17T03:39:44.851Z,55.12
2018-06-17T03:40:44.827Z,56.08
2018-06-17T03:41:44.816Z,57.99
2018-06-17T03:42:45.069Z,58.56
2018-06-17T03:43:44.793Z,58.56
2018-06-17T03:44:44.777Z,59.72
2018-06-17T03:45:45.032Z,59.52
2018-06-17T03:46:45.019Z,59.62
2018-06-17T03:47:45.011Z,60.38
2018-06-17T03:48:44.991Z,60.61
2018-06-17T03:49:44.974Z,62.3
2018-06-17T03:50:44.961Z,63.86
2018-06-17T03:51:44.953Z,63.48
2018-06-17T03:52:44.675Z,63.29
2018-06-17T03:53:44.654Z,64.82
2018-06-17T03:54:44.644Z,63.86
2018-06-17T03:55:44.890Z,63.76
2018-06-17T03:56:44.881Z,67.02
2018-06-17T03:57:44.871Z,66.54
2018-06-17T03:58:44.855Z,66.35
2018-06-17T03:59:44.579Z,67.6
2018-06-17T04:00:44.827Z,68.07
2018-06-17T04:01:44.821Z,69.23
2018-06-17T04:02:44.795Z,68.55
2018-06-17T04:03:44.526Z,67.98
2018-06-17T04:04:44.781Z,69.32
2018-06-17T04:05:44.499Z,69.6
2018-06-17T04:06:44.493Z,70.66
2018-06-17T04:07:44.746Z,69.6
2018-06-17T04:08:44.734Z,71.81
2018-06-17T04:09:44.716Z,70.37
2018-06-17T04:10:44.699Z,70.56
2018-06-17T04:11:44.688Z,71.81
2018-06-17T04:12:44.670Z,71.52
2018-06-17T04:13:44.390Z,72.09
2018-06-17T04:14:44.645Z,72.58
2018-06-17T04:15:44.366Z,72.99
2018-06-17T04:16:44.618Z,73.47
2018-06-17T04:17:44.606Z,74.05
2018-06-17T04:18:44.590Z,73.57
2018-06-17T04:19:44.578Z,72.52
2018-06-17T04:20:44.568Z,74.24
2018-06-17T04:21:44.288Z,72.9
2018-06-17T04:22:44.279Z,71.66
2018-06-17T04:23:44.266Z,73.09
2018-06-17T04:24:44.253Z,73.19
2018-06-17T04:25:44.672Z,73.47
2018-06-17T04:26:44.223Z,73.19
2018-06-17T04:27:44.525Z,72.99
2018-06-17T04:28:44.201Z,73.86
2018-06-17T04:29:44.449Z,74.24
2018-06-17T04:30:44.441Z,74.05
2018-06-17T04:31:44.156Z,73.66
2018-06-17T04:32:44.407Z,72.42
2018-06-17T04:33:44.393Z,72.61
2018-06-17T04:34:44.123Z,72.9
2018-06-17T04:35:44.107Z,72.8
2018-06-17T04:36:44.101Z,72.61
2018-06-17T04:37:44.345Z,73.76
2018-06-17T04:38:44.067Z,72.71
2018-06-17T04:39:44.321Z,72.71
2018-06-17T04:40:44.304Z,72.99
2018-06-17T04:41:44.292Z,73.47
2018-06-17T04:42:44.278Z,72.52
2018-06-17T04:43:44.264Z,72.23
2018-06-17T04:44:44.258Z,72.8
2018-06-17T04:45:44.292Z,73.76
2018-06-17T04:46:43.968Z,73.66
2018-06-17T04:47:43.953Z,74.24
2018-06-17T04:48:44.205Z,75.01
2018-06-17T04:49:43.933Z,73.95
2018-06-17T04:50:44.177Z,73.47
2018-06-17T04:51:44.165Z,74.05
2018-06-17T04:52:44.151Z,74.62
2018-06-17T04:53:43.874Z,75.58
2018-06-17T04:54:43.873Z,74.52
2018-06-17T04:55:43.857Z,74.52
2018-06-17T04:56:44.104Z,74.52
2018-06-17T04:57:43.825Z,74.72
2018-06-17T04:58:44.077Z,72.8
2018-06-17T04:59:43.801Z,73.66
2018-06-17T05:00:44.053Z,75.68
2018-06-17T05:01:44.046Z,74.82
2018-06-17T05:02:43.760Z,75.01
2018-06-17T05:03:43.748Z,75.87
2018-06-17T05:04:43.997Z,74.91
2018-06-17T05:05:43.721Z,75.68
2018-06-17T05:06:43.705Z,76.86
2018-06-17T05:07:43.697Z,75.01
2018-06-17T05:08:43.685Z,76.39
2018-06-17T05:09:44.543Z,78.3
2018-06-17T05:10:43.659Z,77.15
2018-06-17T05:11:43.644Z,77.15
2018-06-17T05:12:43.897Z,77.63
2018-06-17T05:13:43.619Z,77.34
2018-06-17T05:14:43.876Z,79.07
2018-06-17T05:15:43.594Z,77.34
2018-06-17T05:16:43.843Z,79.74
2018-06-17T05:17:43.841Z,78.97
2018-06-17T05:18:43.820Z,78.97
2018-06-17T05:19:43.804Z,80.41
2018-06-17T05:20:43.792Z,78.88
2018-06-17T05:21:43.784Z,79.74
2018-06-17T05:22:43.769Z,78.2
2018-06-17T05:23:43.753Z,77.53
2018-06-17T05:24:43.743Z,77.44
2018-06-17T05:25:43.731Z,76.67
2018-06-17T05:26:43.450Z,77.25
2018-06-17T05:27:43.704Z,78.4
2018-06-17T05:28:43.741Z,77.44
2018-06-17T05:29:43.681Z,77.06
2018-06-17T05:30:43.666Z,76
2018-06-17T05:31:43.392Z,76.96
2018-06-17T05:32:43.645Z,76.96
2018-06-17T05:33:43.703Z,77.53
2018-06-17T05:34:43.351Z,76.77
2018-06-17T05:35:43.346Z,78.4
2018-06-17T05:36:43.595Z,78.11
2018-06-17T05:37:43.623Z,80.32
2018-06-17T05:38:43.561Z,79.16
2018-06-17T05:39:43.290Z,77.34
2018-06-17T05:40:43.548Z,79.78
2018-06-17T05:41:43.266Z,80.07
2018-06-17T05:42:43.519Z,80.07
2018-06-17T05:43:43.245Z,79.97
2018-06-17T05:44:43.492Z,79.59
2018-06-17T05:45:43.484Z,84.77
2018-06-17T05:46:43.469Z,83.91
2018-06-17T05:47:43.467Z,82.75
2018-06-17T05:48:43.449Z,81.22
2018-06-17T05:49:43.438Z,82.94
2018-06-17T05:50:43.466Z,84
2018-06-17T05:51:43.408Z,83.81
2018-06-17T05:52:43.127Z,84.67
2018-06-17T05:53:43.119Z,84.77
2018-06-17T05:54:43.368Z,87.64
2018-06-17T05:55:43.142Z,85.53
2018-06-17T05:56:43.349Z,86.58
2018-06-17T05:57:43.335Z,85.25
2018-06-17T05:58:43.056Z,84.77
2018-06-17T05:59:43.305Z,85.44
2018-06-17T06:00:43.295Z,86.3
2018-06-17T06:01:43.288Z,85.34
2018-06-17T06:02:43.267Z,84.81
2018-06-17T06:03:43.264Z,83.94
2018-06-17T06:04:43.250Z,85.48
2018-06-17T06:05:42.974Z,86.44
2018-06-17T06:06:42.958Z,85.38
2018-06-17T06:07:43.213Z,86.72
2018-06-17T06:08:43.204Z,86.54
2018-06-17T06:09:43.188Z,85
2018-06-17T06:10:43.173Z,87.11
2018-06-17T06:11:43.163Z,86.92
2018-06-17T06:12:42.885Z,87.78
2018-06-17T06:13:43.143Z,86.82
2018-06-17T06:14:43.134Z,85.77
2018-06-17T06:15:43.115Z,83.65
2018-06-17T06:16:43.114Z,86.63
2018-06-17T06:17:43.090Z,88.55
2018-06-17T06:18:43.081Z,89.7
2018-06-17T06:19:43.072Z,88.31
2018-06-17T06:20:43.055Z,92.67
2018-06-17T06:21:43.051Z,96.22
2018-06-17T06:22:42.772Z,97.33
2018-06-17T06:23:43.022Z,97.04
2018-06-17T06:24:42.799Z,95.98
2018-06-17T06:25:43.000Z,95.65
2018-06-17T06:26:42.727Z,94.78
2018-06-17T06:27:42.716Z,93.44
2018-06-17T06:28:42.975Z,93.44
2018-06-17T06:29:42.967Z,95.75
2018-06-17T06:30:42.947Z,95.07
2018-06-17T06:31:42.677Z,96.7
2018-06-17T06:32:42.924Z,96.32
2018-06-17T06:33:42.917Z,95.65
2018-06-17T06:34:42.900Z,95.94
2018-06-17T06:35:42.892Z,97.09
2018-06-17T06:36:42.618Z,96.85
2018-06-17T06:37:42.609Z,96.75
2018-06-17T06:38:42.861Z,96.27
2018-06-17T06:39:42.850Z,96.03
2018-06-17T06:40:42.573Z,95.55
2018-06-17T06:41:42.825Z,96.99
2018-06-17T06:42:42.550Z,96.7
2018-06-17T06:43:42.802Z,95.17
2018-06-17T06:44:42.529Z,96.42
2018-06-17T06:45:42.638Z,95.94
2018-06-17T06:46:42.507Z,97.86
2018-06-17T06:47:42.496Z,99.97
2018-06-17T06:48:42.750Z,99.99
2018-06-17T06:49:42.740Z,99.99
2018-06-17T06:50:42.733Z,99.99
2018-06-17T06:51:42.738Z,99.99
2018-06-17T06:52:42.714Z,99.99
2018-06-17T06:53:42.703Z,99.99
2018-06-17T06:54:42.737Z,99.99
2018-06-17T06:55:42.678Z,99.99
2018-06-17T06:56:42.668Z,99.99
2018-06-17T06:57:42.396Z,98
2018-06-17T06:58:42.667Z,94.34
2018-06-17T06:59:42.425Z,92.69
2018-06-17T07:00:42.631Z,94.53
2018-06-17T07:01:42.626Z,89.75
2018-06-17T07:02:42.608Z,89.74
2018-06-17T07:03:42.595Z,85.93
2018-06-17T07:04:42.328Z,85.83
2018-06-17T07:05:42.314Z,86.89
2018-06-17T07:06:42.307Z,86.41
2018-06-17T07:07:42.338Z,85.44
2018-06-17T07:08:42.548Z,88.54
2018-06-17T07:09:42.536Z,92.84
2018-06-17T07:10:42.532Z,95.01
2018-06-17T07:11:42.521Z,92.99
2018-06-17T07:12:42.509Z,92.32
2018-06-17T07:13:42.496Z,89.27
2018-06-17T07:14:42.275Z,86.32
2018-06-17T07:15:42.214Z,85.16
2018-06-17T07:16:42.544Z,83.56
2018-06-17T07:17:42.455Z,81.29
2018-06-17T07:18:42.450Z,79.83
2018-06-17T07:19:42.490Z,80.22
2018-06-17T07:20:42.435Z,80.57
2018-06-17T07:21:42.422Z,80.66
2018-06-17T07:22:42.151Z,80.86
2018-06-17T07:23:42.138Z,82.17
2018-06-17T07:24:42.132Z,82.65
2018-06-17T07:25:42.384Z,84.2
2018-06-17T07:26:42.164Z,86.18
2018-06-17T07:27:42.373Z,86.18
2018-06-17T07:28:42.100Z,85.6
2018-06-17T07:29:42.364Z,83.67
2018-06-17T07:30:42.350Z,84.35
2018-06-17T07:31:42.345Z,85.66
2018-06-17T07:32:42.423Z,84.83
2018-06-17T07:33:42.337Z,86.24
2018-06-17T07:34:42.323Z,86.96
2018-06-17T07:35:42.052Z,86.96
2018-06-17T07:36:42.311Z,86.43
2018-06-17T07:37:42.300Z,87.1
2018-06-17T07:38:42.297Z,89.42
2018-06-17T07:39:42.285Z,91.98
2018-06-17T07:40:42.012Z,94.06
2018-06-17T07:41:42.273Z,95.89
2018-06-17T07:42:42.264Z,98.2
2018-06-17T07:43:42.314Z,98.54
2018-06-17T07:44:42.254Z,99.99
2018-06-17T07:45:42.241Z,99.99
2018-06-17T07:46:42.234Z,99.99
2018-06-17T07:47:42.235Z,99.99
2018-06-17T07:48:42.223Z,99.99
2018-06-17T07:49:41.948Z,99.99
2018-06-17T07:50:41.940Z,99.99
2018-06-17T07:51:41.935Z,99.99
2018-06-17T07:52:42.193Z,99.99
2018-06-17T07:53:41.925Z,99.99
2018-06-17T07:54:42.375Z,95.79
2018-06-17T07:55:42.167Z,91.88
2018-06-17T07:56:41.903Z,91.11
2018-06-17T07:57:41.888Z,89.89
2018-06-17T07:58:41.920Z,88.59
2018-06-17T07:59:41.882Z,89.07
2018-06-17T08:00:42.131Z,86.51
2018-06-17T08:01:42.131Z,86.65
2018-06-17T08:02:41.855Z,82.26
2018-06-17T08:03:41.850Z,82.61
2018-06-17T08:04:41.868Z,86.04
2018-06-17T08:05:41.837Z,86.58
2018-06-17T08:06:41.831Z,86.39
2018-06-17T08:07:42.083Z,89.81
2018-06-17T08:08:41.815Z,91.64
2018-06-17T08:09:42.070Z,92.51
2018-06-17T08:10:41.847Z,94.15
2018-06-17T08:11:42.067Z,93.28
2018-06-17T08:12:42.054Z,93.76
2018-06-17T08:13:42.063Z,94.15
2018-06-17T08:14:42.098Z,97.04
2018-06-17T08:15:42.036Z,99.99
2018-06-17T08:16:41.758Z,99.99
2018-06-17T08:17:41.757Z,99.59
2018-06-17T08:18:41.743Z,99.99
2018-06-17T08:19:42.011Z,99.99
2018-06-17T08:20:41.731Z,99.99
2018-06-17T08:21:41.733Z,99.99
2018-06-17T08:22:41.988Z,99.99
2018-06-17T08:23:41.978Z,99.99
2018-06-17T08:24:41.713Z,99.99
2018-06-17T08:25:41.957Z,99.99
2018-06-17T08:26:41.698Z,99.99
2018-06-17T08:27:41.690Z,99.99
2018-06-17T08:28:41.682Z,99.99
2018-06-17T08:29:41.933Z,99.99
2018-06-17T08:30:41.930Z,99.99
2018-06-17T08:31:41.908Z,99.99
2018-06-17T08:32:41.902Z,99.99
2018-06-17T08:33:41.960Z,99.99
2018-06-17T08:34:41.638Z,99.99
2018-06-17T08:35:41.942Z,99.99
2018-06-17T08:36:41.606Z,99.99
2018-06-17T08:37:41.606Z,99.99
2018-06-17T08:38:41.855Z,99.99
2018-06-17T08:39:41.864Z,99.99
2018-06-17T08:40:41.583Z,99.99
2018-06-17T08:41:41.839Z,99.99
2018-06-17T08:42:41.819Z,99.99
2018-06-17T08:43:41.814Z,99.99
2018-06-17T08:44:41.542Z,99.99
2018-06-17T08:45:41.531Z,99.99
2018-06-17T08:46:41.527Z,99.99
2018-06-17T08:47:41.797Z,99.99
2018-06-17T08:48:41.783Z,99.99
2018-06-17T08:49:41.762Z,99.99
2018-06-17T08:50:41.493Z,99.99
2018-06-17T08:51:41.508Z,99.99
2018-06-17T08:52:41.481Z,99.99
2018-06-17T08:53:41.469Z,99.99
2018-06-17T08:54:41.467Z,99.99
2018-06-17T08:55:41.722Z,99.99
2018-06-17T08:56:41.445Z,99.99
2018-06-17T08:57:41.434Z,99.99
2018-06-17T08:58:41.691Z,99.99
2018-06-17T08:59:41.426Z,99.99
2018-06-17T09:00:41.679Z,99.99
2018-06-17T09:01:41.675Z,97.81
2018-06-17T09:02:41.402Z,97.04
2018-06-17T09:03:41.394Z,95.31
2018-06-17T09:04:41.390Z,96.46
2018-06-17T09:05:41.645Z,95.79
2018-06-17T09:06:41.397Z,98.58
2018-06-17T09:07:41.366Z,96.32
2018-06-17T09:08:41.624Z,95.98
2018-06-17T09:09:41.618Z,96.99
2018-06-17T09:10:41.819Z,98.73
2018-06-17T09:11:41.606Z,98.05
2018-06-17T09:12:41.639Z,99.99
2018-06-17T09:13:41.594Z,99.99
2018-06-17T09:14:41.325Z,99.99
2018-06-17T09:15:41.583Z,98.2
2018-06-17T09:16:41.578Z,99.93
2018-06-17T09:17:41.567Z,99.16
2018-06-17T09:18:41.572Z,99.99
2018-06-17T09:19:41.561Z,99.99
2018-06-17T09:20:41.282Z,99.99
2018-06-17T09:21:41.275Z,97.91
2018-06-17T09:22:41.531Z,98.97
2018-06-17T09:23:41.258Z,99.64
2018-06-17T09:24:41.255Z,99.99
2018-06-17T09:25:41.509Z,99.26
2018-06-17T09:26:41.500Z,99.74
2018-06-17T09:27:41.494Z,98.1
2018-06-17T09:28:41.484Z,97.62
2018-06-17T09:29:41.488Z,98.44
2018-06-17T09:30:41.213Z,99.99
2018-06-17T09:31:41.259Z,99.99
2018-06-17T09:32:41.468Z,99.99
2018-06-17T09:33:41.459Z,99.99
2018-06-17T09:34:41.178Z,99.99
2018-06-17T09:35:41.434Z,99.99
2018-06-17T09:36:41.166Z,99.99
2018-06-17T09:37:41.152Z,99.99
2018-06-17T09:38:41.152Z,99.99
2018-06-17T09:39:41.408Z,99.99
2018-06-17T09:40:41.133Z,99.99
2018-06-17T09:41:41.390Z,99.99
2018-06-17T09:42:41.386Z,99.99
2018-06-17T09:43:41.372Z,99.99
2018-06-17T09:44:41.373Z,99.99
2018-06-17T09:45:41.092Z,99.99
2018-06-17T09:46:41.357Z,99.99
2018-06-17T09:47:41.074Z,99.99
2018-06-17T09:48:41.330Z,99.99
2018-06-17T09:49:41.329Z,99.99
2018-06-17T09:50:41.049Z,99.99
2018-06-17T09:51:41.304Z,99.99
2018-06-17T09:52:41.299Z,99.99
2018-06-17T09:53:41.026Z,99.99
2018-06-17T09:54:41.279Z,99.99
2018-06-17T09:55:41.011Z,99.99
2018-06-17T09:56:41.271Z,99.99
2018-06-17T09:57:41.255Z,99.99
2018-06-17T09:58:41.257Z,99.99
2018-06-17T09:59:41.240Z,99.99
2018-06-17T10:00:41.225Z,99.99
2018-06-17T10:01:41.228Z,99.99
2018-06-17T10:02:41.215Z,99.99
2018-06-17T10:03:41.205Z,99.99
2018-06-17T10:04:40.937Z,99.99
2018-06-17T10:05:41.189Z,99.99
2018-06-17T10:06:40.917Z,99.99
2018-06-17T10:07:41.172Z,99.99
2018-06-17T10:08:41.160Z,99.99
2018-06-17T10:09:40.888Z,99.99
2018-06-17T10:10:41.147Z,99.99
2018-06-17T10:11:41.134Z,99.99
2018-06-17T10:12:40.860Z,99.99
2018-06-17T10:13:41.120Z,99.99
2018-06-17T10:14:40.848Z,99.99
2018-06-17T10:15:41.105Z,99.99
2018-06-17T10:16:40.828Z,99.99
2018-06-17T10:17:40.819Z,99.99
2018-06-17T10:18:41.085Z,99.99
2018-06-17T10:19:40.801Z,99.99
2018-06-17T10:20:40.796Z,99.99
2018-06-17T10:21:41.099Z,99.99
2018-06-17T10:22:41.040Z,99.99
2018-06-17T10:23:41.032Z,99.99
2018-06-17T10:24:40.760Z,99.99
2018-06-17T10:25:40.753Z,99.99
2018-06-17T10:26:40.742Z,99.54
2018-06-17T10:27:40.999Z,99.26
2018-06-17T10:28:40.725Z,99.99
2018-06-17T10:29:40.714Z,99.99
2018-06-17T10:30:40.972Z,99.99
2018-06-17T10:31:40.702Z,99.99
2018-06-17T10:32:40.953Z,99.99
2018-06-17T10:33:40.683Z,99.99
2018-06-17T10:34:40.669Z,99.99
2018-06-17T10:35:40.669Z,99.99
2018-06-17T10:36:40.920Z,99.99
2018-06-17T10:37:40.644Z,99.99
2018-06-17T10:38:40.638Z,99.99
2018-06-17T10:39:40.626Z,99.99
2018-06-17T10:40:40.888Z,99.74
2018-06-17T10:41:40.611Z,99.35
2018-06-17T10:42:40.862Z,99.99
2018-06-17T10:43:40.590Z,99.99
2018-06-17T10:44:40.586Z,99.99
2018-06-17T10:45:40.577Z,99.99
2018-06-17T10:46:40.567Z,97.09
2018-06-17T10:47:40.558Z,97.96
2018-06-17T10:48:40.818Z,95.64
2018-06-17T10:49:40.805Z,97.19
2018-06-17T10:50:40.801Z,98.92
2018-06-17T10:51:40.787Z,99.79
2018-06-17T10:52:40.775Z,97.76
2018-06-17T10:53:40.767Z,97.96
2018-06-17T10:54:40.499Z,96.08
2018-06-17T10:55:40.912Z,96.85
2018-06-17T10:56:40.480Z,97.24
2018-06-17T10:57:40.736Z,97.91
2018-06-17T10:58:40.727Z,97.04
2018-06-17T10:59:40.718Z,96.94
2018-06-17T11:00:40.712Z,99.84
2018-06-17T11:01:40.701Z,98.29
2018-06-17T11:02:40.435Z,99.16
2018-06-17T11:03:40.687Z,98.97
2018-06-17T11:04:40.675Z,99.74
2018-06-17T11:05:40.555Z,99.54
2018-06-17T11:06:40.657Z,99.99
2018-06-17T11:07:40.650Z,98.58
2018-06-17T11:08:40.640Z,99.74
2018-06-17T11:09:40.635Z,99.64
2018-06-17T11:10:40.565Z,99.98
2018-06-17T11:11:40.352Z,99.99
2018-06-17T11:12:40.340Z,99.99
2018-06-17T11:13:40.602Z,99.99
2018-06-17T11:14:40.591Z,99.99
2018-06-17T11:15:40.583Z,98.72
2018-06-17T11:16:40.315Z,99.99
2018-06-17T11:17:40.564Z,99.49
2018-06-17T11:18:40.288Z,99.78
2018-06-17T11:19:40.667Z,99.4
2018-06-17T11:20:40.542Z,99.69
2018-06-17T11:21:40.523Z,99.99
2018-06-17T11:22:40.256Z,99.99
2018-06-17T11:23:40.520Z,99.99
2018-06-17T11:24:40.497Z,99.99
2018-06-17T11:25:40.496Z,99.99
2018-06-17T11:26:40.232Z,99.99
2018-06-17T11:27:40.480Z,99.99
2018-06-17T11:28:40.477Z,99.99
2018-06-17T11:29:40.451Z,99.99
2018-06-17T11:30:40.445Z,99.93
2018-06-17T11:31:40.436Z,99.99
2018-06-17T11:32:40.428Z,99.99
2018-06-17T11:33:40.177Z,99.99
2018-06-17T11:34:40.151Z,99.99
2018-06-17T11:35:40.138Z,99.99
2018-06-17T11:36:40.126Z,99.99
2018-06-17T11:37:40.391Z,99.99
2018-06-17T11:38:40.379Z,99.99
2018-06-17T11:39:40.390Z,99.99
2018-06-17T11:40:40.094Z,99.99
2018-06-17T11:41:40.346Z,99.99
2018-06-17T11:42:40.346Z,99.99
2018-06-17T11:43:40.337Z,99.99
2018-06-17T11:44:40.099Z,99.99
2018-06-17T11:45:40.315Z,99.98
2018-06-17T11:46:40.041Z,99.99
2018-06-17T11:47:40.316Z,99.99
2018-06-17T11:48:40.300Z,99.99
2018-06-17T11:49:40.282Z,99.99
2018-06-17T11:50:40.013Z,99.99
2018-06-17T11:51:40.271Z,99.99
2018-06-17T11:52:39.999Z,99.99
2018-06-17T11:53:40.248Z,99.99
2018-06-17T11:54:39.974Z,99.99
2018-06-17T11:55:39.972Z,99.99
2018-06-17T11:56:39.965Z,99.99
2018-06-17T11:57:39.955Z,99.99
2018-06-17T11:58:39.989Z,99.99
2018-06-17T11:59:40.231Z,99.99
2018-06-17T12:00:39.929Z,99.99
2018-06-17T12:01:39.915Z,99.99
2018-06-17T12:02:39.908Z,99.99
2018-06-17T12:03:40.162Z,99.99
2018-06-17T12:04:39.892Z,99.99
2018-06-17T12:05:39.883Z,99.99
2018-06-17T12:06:40.167Z,99.99
2018-06-17T12:07:39.869Z,99.99
2018-06-17T12:08:40.119Z,99.99
2018-06-17T12:09:40.199Z,99.99
2018-06-17T12:10:40.118Z,99.99
2018-06-17T12:11:39.838Z,99.99
2018-06-17T12:12:40.093Z,99.99
2018-06-17T12:13:40.081Z,99.99
2018-06-17T12:14:40.134Z,99.99
2018-06-17T12:15:40.065Z,99.99
2018-06-17T12:16:40.069Z,99.99
2018-06-17T12:17:40.043Z,99.99
2018-06-17T12:18:40.045Z,99.99
2018-06-17T12:19:40.028Z,99.99
2018-06-17T12:20:39.753Z,99.99
2018-06-17T12:21:39.748Z,99.99
2018-06-17T12:22:39.741Z,99.99
2018-06-17T12:23:39.994Z,99.99
2018-06-17T12:24:39.990Z,99.99
2018-06-17T12:25:39.986Z,99.99
2018-06-17T12:26:40.032Z,99.99
2018-06-17T12:27:39.987Z,99.99
2018-06-17T12:28:39.715Z,99.99
2018-06-17T12:29:39.726Z,99.99
2018-06-17T12:30:39.935Z,99.99
2018-06-17T12:31:39.928Z,99.99
2018-06-17T12:32:39.966Z,99.99
2018-06-17T12:33:39.653Z,99.99
2018-06-17T12:34:39.657Z,99.99
2018-06-17T12:35:39.891Z,99.99
2018-06-17T12:36:39.887Z,99.99
2018-06-17T12:37:39.619Z,99.99
2018-06-17T12:38:39.879Z,99.99
2018-06-17T12:39:39.601Z,99.99
2018-06-17T12:40:39.869Z,99.99
2018-06-17T12:41:39.840Z,99.99
2018-06-17T12:42:39.569Z,99.99
2018-06-17T12:43:39.824Z,99.99
2018-06-17T12:44:39.555Z,99.99
2018-06-17T12:45:39.805Z,99.99
2018-06-17T12:46:39.537Z,99.99
2018-06-17T12:47:39.525Z,99.99
2018-06-17T12:48:39.514Z,99.99
2018-06-17T12:49:39.506Z,99.99
2018-06-17T12:50:39.499Z,99.99
2018-06-17T12:51:39.753Z,99.99
2018-06-17T12:52:39.750Z,99.99
2018-06-17T12:53:39.736Z,99.99
2018-06-17T12:54:39.464Z,99.99
2018-06-17T12:55:39.457Z,99.99